sensor_id;sensor_type;location;lat;lon;timestamp;pressure;altitude;pressure_sealevel;temperature;humidity
11621;BME280;5866;49.094;11.900;2023-02-13T00:00:00;98172.00;;;5.23;100.00
11621;BME280;5866;49.094;11.900;2023-02-13T00:02:27;98179.56;;;5.29;100.00
11621;BME280;5866;49.094;11.900;2023-02-13T00:04:55;98166.66;;;5.24;100.00
11621;BME280;5866;49.094;11.900;2023-02-13T00:07:22;98171.59;;;5.30;100.00
11621;BME280;5866;49.094;11.900;2023-02-13T00:09:50;98170.66;;;5.31;100.00
11621;BME280;5866;49.094;11.900;2023-02-13T00:12:17;98171.19;;;5.38;100.00
11621;BME280;5866;49.094;11.900;2023-02-13T00:14:45;98171.09;;;5.39;100.00
11621;BME280;5866;49.094;11.900;2023-02-13T00:17:14;98167.53;;;5.40;100.00
11621;BME280;5866;49.094;11.900;2023-02-13T00:19:41;98171.09;;;5.39;100.00
11621;BME280;5866;49.094;11.900;2023-02-13T00:22:09;98177.09;;;5.26;100.00
11621;BME280;5866;49.094;11.900;2023-02-13T00:24:37;98174.03;;;5.18;100.00
11621;BME280;5866;49.094;11.900;2023-02-13T00:27:04;98174.25;;;4.80;100.00
11621;BME280;5866;49.094;11.900;2023-02-13T00:29:31;98170.59;;;5.00;100.00
11621;BME280;5866;49.094;11.900;2023-02-13T00:31:59;98167.56;;;5.08;100.00
11621;BME280;5866;49.094;11.900;2023-02-13T00:34:29;98170.44;;;4.86;100.00
11621;BME280;5866;49.094;11.900;2023-02-13T00:36:56;98178.88;;;4.75;100.00
11621;BME280;5866;49.094;11.900;2023-02-13T00:39:24;98177.84;;;4.79;100.00
11621;BME280;5866;49.094;11.900;2023-02-13T00:41:51;98176.47;;;4.88;100.00
11621;BME280;5866;49.094;11.900;2023-02-13T00:44:19;98172.50;;;4.64;100.00
11621;BME280;5866;49.094;11.900;2023-02-13T00:46:46;98178.19;;;4.89;100.00
11621;BME280;5866;49.094;11.900;2023-02-13T00:49:14;98166.34;;;4.98;100.00
11621;BME280;5866;49.094;11.900;2023-02-13T00:51:43;98173.13;;;4.69;100.00
11621;BME280;5866;49.094;11.900;2023-02-13T00:54:10;98169.22;;;4.76;100.00
11621;BME280;5866;49.094;11.900;2023-02-13T00:56:38;98169.25;;;4.25;100.00
11621;BME280;5866;49.094;11.900;2023-02-13T00:59:06;98170.19;;;4.41;100.00
11621;BME280;5866;49.094;11.900;2023-02-13T01:01:33;98168.50;;;4.40;100.00
11621;BME280;5866;49.094;11.900;2023-02-13T01:04:01;98168.31;;;4.60;100.00
11621;BME280;5866;49.094;11.900;2023-02-13T01:06:29;98171.25;;;4.71;100.00
11621;BME280;5866;49.094;11.900;2023-02-13T01:08:58;98160.56;;;4.74;100.00
11621;BME280;5866;49.094;11.900;2023-02-13T01:11:25;98160.50;;;4.75;100.00
11621;BME280;5866;49.094;11.900;2023-02-13T01:13:53;98166.25;;;4.66;100.00
11621;BME280;5866;49.094;11.900;2023-02-13T01:16:20;98160.13;;;4.66;100.00
11621;BME280;5866;49.094;11.900;2023-02-13T01:18:48;98166.31;;;4.65;100.00
11621;BME280;5866;49.094;11.900;2023-02-13T01:21:17;98161.97;;;4.64;100.00
11621;BME280;5866;49.094;11.900;2023-02-13T01:23:45;98162.84;;;4.64;100.00
11621;BME280;5866;49.094;11.900;2023-02-13T01:26:16;98163.69;;;4.65;100.00
11621;BME280;5866;49.094;11.900;2023-02-13T01:28:45;98150.69;;;4.62;100.00
11621;BME280;5866;49.094;11.900;2023-02-13T01:31:12;98162.13;;;4.61;100.00
11621;BME280;5866;49.094;11.900;2023-02-13T01:33:40;98149.94;;;4.60;100.00
11621;BME280;5866;49.094;11.900;2023-02-13T01:36:09;98151.16;;;4.53;100.00
11621;BME280;5866;49.094;11.900;2023-02-13T01:38:37;98153.97;;;4.50;100.00
11621;BME280;5866;49.094;11.900;2023-02-13T01:41:06;98154.72;;;4.35;100.00
11621;BME280;5866;49.094;11.900;2023-02-13T01:43:47;98155.31;;;4.57;100.00
11621;BME280;5866;49.094;11.900;2023-02-13T01:46:17;98150.56;;;4.48;100.00
11621;BME280;5866;49.094;11.900;2023-02-13T01:48:47;98152.72;;;4.40;100.00
11621;BME280;5866;49.094;11.900;2023-02-13T01:51:18;98145.75;;;4.39;100.00
11621;BME280;5866;49.094;11.900;2023-02-13T01:53:49;98148.16;;;4.43;100.00
11621;BME280;5866;49.094;11.900;2023-02-13T01:56:22;98151.16;;;4.36;100.00
11621;BME280;5866;49.094;11.900;2023-02-13T01:58:56;98153.31;;;4.28;100.00
11621;BME280;5866;49.094;11.900;2023-02-13T02:01:24;98149.31;;;4.21;100.00
11621;BME280;5866;49.094;11.900;2023-02-13T02:03:55;98144.22;;;4.18;100.00
11621;BME280;5866;49.094;11.900;2023-02-13T02:06:26;98155.03;;;4.12;100.00
11621;BME280;5866;49.094;11.900;2023-02-13T02:08:56;98150.16;;;3.85;100.00
11621;BME280;5866;49.094;11.900;2023-02-13T02:11:32;98149.59;;;3.97;100.00
11621;BME280;5866;49.094;11.900;2023-02-13T02:14:03;98153.03;;;4.17;100.00
11621;BME280;5866;49.094;11.900;2023-02-13T02:16:31;98157.25;;;3.66;100.00
11621;BME280;5866;49.094;11.900;2023-02-13T02:19:00;98148.38;;;3.50;100.00
11621;BME280;5866;49.094;11.900;2023-02-13T02:21:47;98150.53;;;3.23;100.00
11621;BME280;5866;49.094;11.900;2023-02-13T02:24:46;98152.16;;;2.87;100.00
11621;BME280;5866;49.094;11.900;2023-02-13T02:34:08;98148.25;;;3.16;100.00
11621;BME280;5866;49.094;11.900;2023-02-13T02:36:55;98130.19;;;3.47;100.00
11621;BME280;5866;49.094;11.900;2023-02-13T02:39:29;98127.41;;;3.50;100.00
11621;BME280;5866;49.094;11.900;2023-02-13T02:42:10;98127.53;;;3.66;100.00
11621;BME280;5866;49.094;11.900;2023-02-13T02:44:46;98125.00;;;3.64;100.00
11621;BME280;5866;49.094;11.900;2023-02-13T02:47:21;98126.97;;;3.59;100.00
11621;BME280;5866;49.094;11.900;2023-02-13T02:50:17;98122.59;;;3.41;100.00
11621;BME280;5866;49.094;11.900;2023-02-13T02:52:58;98126.44;;;3.34;100.00
11621;BME280;5866;49.094;11.900;2023-02-13T02:55:36;98124.66;;;3.35;100.00
11621;BME280;5866;49.094;11.900;2023-02-13T02:58:10;98122.72;;;3.38;100.00
11621;BME280;5866;49.094;11.900;2023-02-13T03:00:58;98124.56;;;3.36;100.00
11621;BME280;5866;49.094;11.900;2023-02-13T03:03:45;98127.75;;;3.43;100.00
11621;BME280;5866;49.094;11.900;2023-02-13T03:06:36;98123.22;;;3.46;100.00
11621;BME280;5866;49.094;11.900;2023-02-13T03:09:10;98121.53;;;3.45;100.00
11621;BME280;5866;49.094;11.900;2023-02-13T03:11:56;98119.19;;;3.39;100.00
11621;BME280;5866;49.094;11.900;2023-02-13T03:14:42;98123.69;;;3.54;100.00
11621;BME280;5866;49.094;11.900;2023-02-13T03:17:12;98128.56;;;3.07;100.00
11621;BME280;5866;49.094;11.900;2023-02-13T03:20:07;98130.38;;;2.87;100.00
11621;BME280;5866;49.094;11.900;2023-02-13T03:23:10;98125.50;;;3.16;100.00
11621;BME280;5866;49.094;11.900;2023-02-13T03:26:15;98132.72;;;3.49;100.00
11621;BME280;5866;49.094;11.900;2023-02-13T03:28:51;98134.00;;;3.40;100.00
11621;BME280;5866;49.094;11.900;2023-02-13T03:31:47;98133.00;;;3.61;100.00
11621;BME280;5866;49.094;11.900;2023-02-13T03:34:20;98126.25;;;3.74;100.00
11621;BME280;5866;49.094;11.900;2023-02-13T03:36:52;98129.53;;;3.42;100.00
11621;BME280;5866;49.094;11.900;2023-02-13T03:39:48;98127.28;;;3.35;100.00
11621;BME280;5866;49.094;11.900;2023-02-13T03:42:22;98129.44;;;3.44;100.00
11621;BME280;5866;49.094;11.900;2023-02-13T03:44:55;98126.19;;;3.57;100.00
11621;BME280;5866;49.094;11.900;2023-02-13T03:47:43;98129.19;;;3.85;100.00
11621;BME280;5866;49.094;11.900;2023-02-13T03:50:12;98130.44;;;3.95;100.00
11621;BME280;5866;49.094;11.900;2023-02-13T03:52:44;98142.09;;;4.07;100.00
11621;BME280;5866;49.094;11.900;2023-02-13T03:55:17;98137.63;;;4.09;100.00
11621;BME280;5866;49.094;11.900;2023-02-13T03:58:06;98132.94;;;4.16;100.00
11621;BME280;5866;49.094;11.900;2023-02-13T04:00:55;98122.50;;;3.97;100.00
11621;BME280;5866;49.094;11.900;2023-02-13T04:03:27;98136.97;;;4.23;100.00
11621;BME280;5866;49.094;11.900;2023-02-13T04:06:02;98127.38;;;4.22;100.00
11621;BME280;5866;49.094;11.900;2023-02-13T04:08:31;98133.91;;;3.60;100.00
11621;BME280;5866;49.094;11.900;2023-02-13T04:11:06;98132.69;;;3.67;100.00
11621;BME280;5866;49.094;11.900;2023-02-13T04:13:38;98136.00;;;3.71;100.00
11621;BME280;5866;49.094;11.900;2023-02-13T04:16:11;98129.13;;;4.21;100.00
11621;BME280;5866;49.094;11.900;2023-02-13T04:18:42;98129.22;;;4.20;100.00
11621;BME280;5866;49.094;11.900;2023-02-13T04:21:10;98121.13;;;4.24;100.00
11621;BME280;5866;49.094;11.900;2023-02-13T04:23:38;98125.19;;;4.30;100.00
11621;BME280;5866;49.094;11.900;2023-02-13T04:26:12;98125.81;;;4.52;100.00
11621;BME280;5866;49.094;11.900;2023-02-13T04:28:42;98120.25;;;4.58;100.00
11621;BME280;5866;49.094;11.900;2023-02-13T04:31:10;98129.53;;;4.48;100.00
11621;BME280;5866;49.094;11.900;2023-02-13T04:33:37;98125.84;;;4.35;100.00
11621;BME280;5866;49.094;11.900;2023-02-13T04:36:05;98127.97;;;4.61;100.00
11621;BME280;5866;49.094;11.900;2023-02-13T04:38:33;98128.59;;;4.32;100.00
11621;BME280;5866;49.094;11.900;2023-02-13T04:41:01;98131.00;;;4.36;100.00
11621;BME280;5866;49.094;11.900;2023-02-13T04:43:29;98128.59;;;4.66;100.00
11621;BME280;5866;49.094;11.900;2023-02-13T04:45:57;98125.41;;;4.76;100.00
11621;BME280;5866;49.094;11.900;2023-02-13T04:48:24;98124.41;;;4.79;100.00
11621;BME280;5866;49.094;11.900;2023-02-13T04:50:52;98124.22;;;4.82;100.00
11621;BME280;5866;49.094;11.900;2023-02-13T04:53:19;98121.88;;;4.93;100.00
11621;BME280;5866;49.094;11.900;2023-02-13T04:55:47;98117.81;;;5.03;100.00
11621;BME280;5866;49.094;11.900;2023-02-13T04:58:14;98113.41;;;5.04;100.00
11621;BME280;5866;49.094;11.900;2023-02-13T05:00:43;98116.47;;;5.12;100.00
11621;BME280;5866;49.094;11.900;2023-02-13T05:03:12;98109.94;;;5.03;100.00
11621;BME280;5866;49.094;11.900;2023-02-13T05:05:39;98118.34;;;5.10;100.00
11621;BME280;5866;49.094;11.900;2023-02-13T05:08:07;98110.88;;;5.02;100.00
11621;BME280;5866;49.094;11.900;2023-02-13T05:10:35;98114.94;;;4.92;100.00
11621;BME280;5866;49.094;11.900;2023-02-13T05:13:03;98115.97;;;5.05;100.00
11621;BME280;5866;49.094;11.900;2023-02-13T05:15:31;98117.19;;;4.82;100.00
11621;BME280;5866;49.094;11.900;2023-02-13T05:18:00;98127.22;;;4.92;100.00
11621;BME280;5866;49.094;11.900;2023-02-13T05:20:27;98123.59;;;4.94;100.00
11621;BME280;5866;49.094;11.900;2023-02-13T05:22:55;98114.09;;;5.07;100.00
11621;BME280;5866;49.094;11.900;2023-02-13T05:25:41;98127.38;;;4.89;100.00
11621;BME280;5866;49.094;11.900;2023-02-13T05:28:09;98131.22;;;4.99;100.00
11621;BME280;5866;49.094;11.900;2023-02-13T05:30:56;98137.75;;;5.07;100.00
11621;BME280;5866;49.094;11.900;2023-02-13T05:33:26;98140.91;;;5.14;100.00
11621;BME280;5866;49.094;11.900;2023-02-13T05:35:53;98138.56;;;5.25;100.00
11621;BME280;5866;49.094;11.900;2023-02-13T05:38:21;98133.97;;;5.28;100.00
11621;BME280;5866;49.094;11.900;2023-02-13T05:40:48;98136.22;;;5.36;100.00
11621;BME280;5866;49.094;11.900;2023-02-13T05:43:16;98136.88;;;5.39;100.00
11621;BME280;5866;49.094;11.900;2023-02-13T05:45:43;98131.63;;;5.39;100.00
11621;BME280;5866;49.094;11.900;2023-02-13T05:48:11;98141.28;;;5.23;100.00
11621;BME280;5866;49.094;11.900;2023-02-13T05:50:40;98144.16;;;5.34;100.00
11621;BME280;5866;49.094;11.900;2023-02-13T05:53:07;98143.69;;;4.95;100.00
11621;BME280;5866;49.094;11.900;2023-02-13T05:55:35;98139.59;;;5.22;100.00
11621;BME280;5866;49.094;11.900;2023-02-13T05:58:02;98142.31;;;5.36;100.00
11621;BME280;5866;49.094;11.900;2023-02-13T06:00:30;98150.81;;;5.41;100.00
11621;BME280;5866;49.094;11.900;2023-02-13T06:02:57;98145.88;;;5.51;100.00
11621;BME280;5866;49.094;11.900;2023-02-13T06:05:25;98142.44;;;5.50;100.00
11621;BME280;5866;49.094;11.900;2023-02-13T06:07:54;98151.25;;;5.49;100.00
11621;BME280;5866;49.094;11.900;2023-02-13T06:10:21;98145.63;;;5.55;100.00
11621;BME280;5866;49.094;11.900;2023-02-13T06:12:49;98159.31;;;5.62;100.00
11621;BME280;5866;49.094;11.900;2023-02-13T06:15:16;98155.06;;;5.59;100.00
11621;BME280;5866;49.094;11.900;2023-02-13T06:17:44;98164.91;;;5.56;100.00
11621;BME280;5866;49.094;11.900;2023-02-13T06:20:11;98167.31;;;5.60;100.00
11621;BME280;5866;49.094;11.900;2023-02-13T06:22:39;98171.56;;;5.63;100.00
11621;BME280;5866;49.094;11.900;2023-02-13T06:25:08;98167.72;;;5.69;100.00
11621;BME280;5866;49.094;11.900;2023-02-13T06:27:35;98164.75;;;5.75;100.00
11621;BME280;5866;49.094;11.900;2023-02-13T06:30:03;98171.44;;;5.49;100.00
11621;BME280;5866;49.094;11.900;2023-02-13T06:32:31;98178.25;;;5.69;100.00
11621;BME280;5866;49.094;11.900;2023-02-13T06:34:58;98178.16;;;5.70;100.00
11621;BME280;5866;49.094;11.900;2023-02-13T06:37:26;98177.44;;;5.84;100.00
11621;BME280;5866;49.094;11.900;2023-02-13T06:39:53;98185.25;;;5.85;100.00
11621;BME280;5866;49.094;11.900;2023-02-13T06:42:22;98177.88;;;5.92;100.00
11621;BME280;5866;49.094;11.900;2023-02-13T06:44:50;98179.13;;;6.00;100.00
11621;BME280;5866;49.094;11.900;2023-02-13T06:47:17;98181.50;;;6.05;100.00
11621;BME280;5866;49.094;11.900;2023-02-13T06:49:45;98177.16;;;6.04;100.00
11621;BME280;5866;49.094;11.900;2023-02-13T06:52:12;98184.97;;;6.05;100.00
11621;BME280;5866;49.094;11.900;2023-02-13T06:54:40;98188.88;;;6.14;100.00
11621;BME280;5866;49.094;11.900;2023-02-13T06:57:13;98192.09;;;6.19;100.00
11621;BME280;5866;49.094;11.900;2023-02-13T06:59:42;98186.69;;;6.22;100.00
11621;BME280;5866;49.094;11.900;2023-02-13T07:02:10;98189.72;;;6.30;100.00
11621;BME280;5866;49.094;11.900;2023-02-13T07:04:38;98186.47;;;6.40;100.00
11621;BME280;5866;49.094;11.900;2023-02-13T07:07:06;98189.00;;;6.42;100.00
11621;BME280;5866;49.094;11.900;2023-02-13T07:09:33;98189.16;;;6.39;100.00
11621;BME280;5866;49.094;11.900;2023-02-13T07:12:02;98198.88;;;6.38;100.00
11621;BME280;5866;49.094;11.900;2023-02-13T07:14:29;98195.50;;;6.36;99.65
11621;BME280;5866;49.094;11.900;2023-02-13T07:16:58;98198.53;;;6.45;100.00
11621;BME280;5866;49.094;11.900;2023-02-13T07:19:26;98197.22;;;6.52;98.93
11621;BME280;5866;49.094;11.900;2023-02-13T07:21:53;98196.78;;;6.59;98.94
11621;BME280;5866;49.094;11.900;2023-02-13T07:24:21;98203.50;;;5.24;100.00
11621;BME280;5866;49.094;11.900;2023-02-13T07:26:48;98203.50;;;6.04;100.00
11621;BME280;5866;49.094;11.900;2023-02-13T07:29:16;98211.31;;;6.36;100.00
11621;BME280;5866;49.094;11.900;2023-02-13T07:31:43;98206.94;;;6.51;100.00
11621;BME280;5866;49.094;11.900;2023-02-13T07:34:12;98202.72;;;6.63;100.00
11621;BME280;5866;49.094;11.900;2023-02-13T07:36:40;98205.47;;;6.61;100.00
11621;BME280;5866;49.094;11.900;2023-02-13T07:39:07;98200.34;;;6.58;100.00
11621;BME280;5866;49.094;11.900;2023-02-13T07:41:35;98204.91;;;6.40;100.00
11621;BME280;5866;49.094;11.900;2023-02-13T07:44:02;98207.72;;;6.37;100.00
11621;BME280;5866;49.094;11.900;2023-02-13T07:46:30;98202.72;;;6.63;100.00
11621;BME280;5866;49.094;11.900;2023-02-13T07:48:57;98195.34;;;6.83;100.00
11621;BME280;5866;49.094;11.900;2023-02-13T07:51:26;98206.88;;;6.96;100.00
11621;BME280;5866;49.094;11.900;2023-02-13T07:53:54;98208.44;;;6.85;100.00
11621;BME280;5866;49.094;11.900;2023-02-13T07:56:23;98198.66;;;6.87;100.00
11621;BME280;5866;49.094;11.900;2023-02-13T07:58:50;98198.97;;;6.67;100.00
11621;BME280;5866;49.094;11.900;2023-02-13T08:01:18;98195.63;;;6.49;100.00
11621;BME280;5866;49.094;11.900;2023-02-13T08:03:47;98198.84;;;6.98;100.00
11621;BME280;5866;49.094;11.900;2023-02-13T08:06:17;98199.72;;;7.12;100.00
11621;BME280;5866;49.094;11.900;2023-02-13T08:08:46;98204.53;;;7.20;100.00
11621;BME280;5866;49.094;11.900;2023-02-13T08:11:22;98207.47;;;7.58;100.00
11621;BME280;5866;49.094;11.900;2023-02-13T08:14:08;98194.25;;;7.58;99.82
11621;BME280;5866;49.094;11.900;2023-02-13T08:16:35;98194.81;;;7.77;97.35
11621;BME280;5866;49.094;11.900;2023-02-13T08:19:03;98201.38;;;7.84;95.06
11621;BME280;5866;49.094;11.900;2023-02-13T08:21:30;98193.59;;;8.09;95.96
11621;BME280;5866;49.094;11.900;2023-02-13T08:23:59;98199.22;;;7.90;97.45
11621;BME280;5866;49.094;11.900;2023-02-13T08:26:29;98201.13;;;8.15;94.42
11621;BME280;5866;49.094;11.900;2023-02-13T08:28:57;98211.00;;;8.40;94.73
11621;BME280;5866;49.094;11.900;2023-02-13T08:31:25;98209.19;;;8.40;93.24
11621;BME280;5866;49.094;11.900;2023-02-13T08:33:52;98206.94;;;8.34;94.00
11621;BME280;5866;49.094;11.900;2023-02-13T08:36:20;98206.03;;;8.35;91.37
11621;BME280;5866;49.094;11.900;2023-02-13T08:38:48;98206.88;;;8.48;93.19
11621;BME280;5866;49.094;11.900;2023-02-13T08:41:16;98205.53;;;8.55;96.43
11621;BME280;5866;49.094;11.900;2023-02-13T08:43:46;98211.78;;;8.94;95.70
11621;BME280;5866;49.094;11.900;2023-02-13T08:46:14;98209.63;;;8.86;90.82
11621;BME280;5866;49.094;11.900;2023-02-13T08:48:41;98210.16;;;8.78;90.61
11621;BME280;5866;49.094;11.900;2023-02-13T08:51:11;98217.50;;;8.88;91.38
11621;BME280;5866;49.094;11.900;2023-02-13T08:53:39;98217.72;;;9.10;89.94
11621;BME280;5866;49.094;11.900;2023-02-13T08:56:08;98218.34;;;9.13;89.34
11621;BME280;5866;49.094;11.900;2023-02-13T08:58:37;98219.94;;;9.16;91.13
11621;BME280;5866;49.094;11.900;2023-02-13T09:01:05;98224.00;;;9.34;93.34
11621;BME280;5866;49.094;11.900;2023-02-13T09:03:34;98220.06;;;9.52;89.91
11621;BME280;5866;49.094;11.900;2023-02-13T09:06:02;98220.81;;;9.29;88.78
11621;BME280;5866;49.094;11.900;2023-02-13T09:08:30;98218.78;;;9.20;93.33
11621;BME280;5866;49.094;11.900;2023-02-13T09:10:59;98212.22;;;9.00;92.90
11621;BME280;5866;49.094;11.900;2023-02-13T09:13:27;98212.97;;;9.15;94.46
11621;BME280;5866;49.094;11.900;2023-02-13T09:15:59;98214.16;;;9.48;94.05
11621;BME280;5866;49.094;11.900;2023-02-13T09:18:27;98219.88;;;9.55;91.27
11621;BME280;5866;49.094;11.900;2023-02-13T09:20:58;98215.16;;;9.84;90.31
11621;BME280;5866;49.094;11.900;2023-02-13T09:23:29;98224.13;;;10.06;90.40
11621;BME280;5866;49.094;11.900;2023-02-13T09:25:58;98222.19;;;10.08;89.23
11621;BME280;5866;49.094;11.900;2023-02-13T09:28:27;98208.28;;;10.30;87.97
11621;BME280;5866;49.094;11.900;2023-02-13T09:30:54;98206.97;;;10.59;86.79
11621;BME280;5866;49.094;11.900;2023-02-13T09:33:24;98206.88;;;10.95;84.23
11621;BME280;5866;49.094;11.900;2023-02-13T09:35:52;98212.84;;;11.21;82.01
11621;BME280;5866;49.094;11.900;2023-02-13T09:38:19;98209.72;;;11.38;81.67
11621;BME280;5866;49.094;11.900;2023-02-13T09:40:49;98207.22;;;11.02;79.75
11621;BME280;5866;49.094;11.900;2023-02-13T09:43:24;98208.16;;;10.90;78.57
11621;BME280;5866;49.094;11.900;2023-02-13T09:45:55;98207.69;;;10.96;79.72
11621;BME280;5866;49.094;11.900;2023-02-13T09:48:29;98209.16;;;11.00;77.65
11621;BME280;5866;49.094;11.900;2023-02-13T09:50:57;98209.94;;;11.13;77.53
11621;BME280;5866;49.094;11.900;2023-02-13T09:53:28;98216.56;;;11.18;76.61
11621;BME280;5866;49.094;11.900;2023-02-13T09:56:04;98216.44;;;11.09;75.17
11621;BME280;5866;49.094;11.900;2023-02-13T09:58:40;98214.09;;;10.93;75.07
11621;BME280;5866;49.094;11.900;2023-02-13T10:01:17;98207.66;;;11.19;75.74
11621;BME280;5866;49.094;11.900;2023-02-13T10:03:54;98207.22;;;11.59;74.50
11621;BME280;5866;49.094;11.900;2023-02-13T10:06:28;98207.13;;;11.82;72.42
11621;BME280;5866;49.094;11.900;2023-02-13T10:09:03;98206.88;;;12.19;69.05
11621;BME280;5866;49.094;11.900;2023-02-13T10:11:47;98208.66;;;12.29;67.60
11621;BME280;5866;49.094;11.900;2023-02-13T10:14:22;98210.44;;;12.40;66.72
11621;BME280;5866;49.094;11.900;2023-02-13T10:16:55;98211.84;;;11.90;66.70
11621;BME280;5866;49.094;11.900;2023-02-13T10:19:33;98211.72;;;11.91;67.78
11621;BME280;5866;49.094;11.900;2023-02-13T10:22:05;98212.69;;;12.13;67.26
11621;BME280;5866;49.094;11.900;2023-02-13T10:24:37;98219.59;;;12.47;65.46
11621;BME280;5866;49.094;11.900;2023-02-13T10:27:17;98217.94;;;12.46;65.88
11621;BME280;5866;49.094;11.900;2023-02-13T10:29:49;98218.66;;;12.48;65.62
11621;BME280;5866;49.094;11.900;2023-02-13T10:32:40;98216.72;;;12.39;66.17
11621;BME280;5866;49.094;11.900;2023-02-13T10:35:18;98209.16;;;12.55;65.85
11621;BME280;5866;49.094;11.900;2023-02-13T10:37:47;98213.44;;;12.46;64.93
11621;BME280;5866;49.094;11.900;2023-02-13T10:40:18;98211.72;;;12.56;64.96
11621;BME280;5866;49.094;11.900;2023-02-13T10:42:51;98210.94;;;12.65;65.06
11621;BME280;5866;49.094;11.900;2023-02-13T10:45:32;98216.19;;;12.56;65.58
11621;BME280;5866;49.094;11.900;2023-02-13T10:48:16;98213.53;;;12.56;66.02
11621;BME280;5866;49.094;11.900;2023-02-13T10:50:55;98209.97;;;12.77;65.79
11621;BME280;5866;49.094;11.900;2023-02-13T10:53:37;98207.56;;;12.95;65.57
11621;BME280;5866;49.094;11.900;2023-02-13T10:56:18;98206.47;;;12.98;64.96
11621;BME280;5866;49.094;11.900;2023-02-13T10:59:01;98205.97;;;13.24;64.37
11621;BME280;5866;49.094;11.900;2023-02-13T11:01:34;98208.41;;;13.27;63.20
11621;BME280;5866;49.094;11.900;2023-02-13T11:04:07;98198.50;;;13.18;63.68
11621;BME280;5866;49.094;11.900;2023-02-13T11:06:41;98203.06;;;13.48;63.40
11621;BME280;5866;49.094;11.900;2023-02-13T11:09:09;98199.47;;;13.59;62.70
11621;BME280;5866;49.094;11.900;2023-02-13T11:11:40;98200.31;;;13.38;61.75
11621;BME280;5866;49.094;11.900;2023-02-13T11:14:13;98199.50;;;13.17;62.57
11621;BME280;5866;49.094;11.900;2023-02-13T11:16:52;98189.63;;;12.97;63.72
11621;BME280;5866;49.094;11.900;2023-02-13T11:19:24;98191.91;;;12.81;64.03
11621;BME280;5866;49.094;11.900;2023-02-13T11:21:57;98198.22;;;12.37;66.99
11621;BME280;5866;49.094;11.900;2023-02-13T11:24:26;98191.53;;;12.54;66.67
11621;BME280;5866;49.094;11.900;2023-02-13T11:26:58;98198.31;;;12.47;66.73
11621;BME280;5866;49.094;11.900;2023-02-13T11:29:28;98200.91;;;12.37;66.68
11621;BME280;5866;49.094;11.900;2023-02-13T11:32:03;98203.63;;;12.47;67.33
11621;BME280;5866;49.094;11.900;2023-02-13T11:34:32;98196.09;;;12.63;65.93
11621;BME280;5866;49.094;11.900;2023-02-13T11:37:15;98207.50;;;12.54;66.62
11621;BME280;5866;49.094;11.900;2023-02-13T11:39:44;98204.19;;;12.61;66.82
11621;BME280;5866;49.094;11.900;2023-02-13T11:42:14;98203.69;;;12.67;66.87
11621;BME280;5866;49.094;11.900;2023-02-13T11:44:47;98198.41;;;12.88;66.51
11621;BME280;5866;49.094;11.900;2023-02-13T11:47:15;98203.16;;;12.73;66.36
11621;BME280;5866;49.094;11.900;2023-02-13T11:49:45;98198.91;;;12.82;66.75
11621;BME280;5866;49.094;11.900;2023-02-13T11:52:25;98199.44;;;12.97;65.63
11621;BME280;5866;49.094;11.900;2023-02-13T11:54:56;98205.09;;;13.03;65.48
11621;BME280;5866;49.094;11.900;2023-02-13T11:57:28;98203.94;;;12.96;65.98
11621;BME280;5866;49.094;11.900;2023-02-13T11:59:57;98201.50;;;13.04;66.22
11621;BME280;5866;49.094;11.900;2023-02-13T12:02:26;98208.41;;;13.27;63.64
11621;BME280;5866;49.094;11.900;2023-02-13T12:05:13;98202.25;;;13.36;63.62
11621;BME280;5866;49.094;11.900;2023-02-13T12:07:43;98198.69;;;13.26;63.66
11621;BME280;5866;49.094;11.900;2023-02-13T12:10:19;98196.16;;;13.45;62.57
11621;BME280;5866;49.094;11.900;2023-02-13T12:12:52;98199.81;;;13.44;63.32
11621;BME280;5866;49.094;11.900;2023-02-13T12:15:22;98196.84;;;13.17;63.14
11621;BME280;5866;49.094;11.900;2023-02-13T12:17:58;98190.84;;;13.04;64.12
11621;BME280;5866;49.094;11.900;2023-02-13T12:20:35;98192.75;;;13.02;62.84
11621;BME280;5866;49.094;11.900;2023-02-13T12:23:15;98194.28;;;12.84;61.88
11621;BME280;5866;49.094;11.900;2023-02-13T12:25:54;98193.00;;;11.82;67.75
11621;BME280;5866;49.094;11.900;2023-02-13T12:28:35;98174.47;;;12.03;67.81
11621;BME280;5866;49.094;11.900;2023-02-13T12:31:28;98178.13;;;11.79;67.91
11621;BME280;5866;49.094;11.900;2023-02-13T12:34:20;98168.91;;;12.06;67.66
11621;BME280;5866;49.094;11.900;2023-02-13T12:37:00;98175.75;;;12.19;65.54
11621;BME280;5866;49.094;11.900;2023-02-13T12:39:33;98172.78;;;12.13;67.01
11621;BME280;5866;49.094;11.900;2023-02-13T12:42:15;98163.78;;;12.25;65.66
11621;BME280;5866;49.094;11.900;2023-02-13T12:45:02;98167.06;;;12.17;66.00
11621;BME280;5866;49.094;11.900;2023-02-13T12:47:39;98166.41;;;11.93;66.90
11621;BME280;5866;49.094;11.900;2023-02-13T12:50:31;98159.94;;;12.07;67.12
11621;BME280;5866;49.094;11.900;2023-02-13T12:53:13;98151.28;;;11.93;64.12
11621;BME280;5866;49.094;11.900;2023-02-13T12:55:59;98157.34;;;11.84;66.96
11621;BME280;5866;49.094;11.900;2023-02-13T12:58:43;98154.16;;;12.44;64.85
11621;BME280;5866;49.094;11.900;2023-02-13T13:01:21;98154.25;;;12.54;58.86
11621;BME280;5866;49.094;11.900;2023-02-13T13:04:03;98149.94;;;12.94;57.23
11621;BME280;5866;49.094;11.900;2023-02-13T13:06:49;98148.19;;;12.63;61.71
11621;BME280;5866;49.094;11.900;2023-02-13T13:09:51;98151.22;;;12.16;62.42
11621;BME280;5866;49.094;11.900;2023-02-13T13:12:38;98149.09;;;11.21;60.41
11621;BME280;5866;49.094;11.900;2023-02-13T13:15:16;98153.06;;;11.15;62.30
11621;BME280;5866;49.094;11.900;2023-02-13T13:17:54;98139.56;;;11.74;61.48
11621;BME280;5866;49.094;11.900;2023-02-13T13:20:39;98137.63;;;11.87;61.92
11621;BME280;5866;49.094;11.900;2023-02-13T13:23:12;98135.84;;;12.19;61.45
11621;BME280;5866;49.094;11.900;2023-02-13T13:25:47;98147.84;;;12.14;60.58
11621;BME280;5866;49.094;11.900;2023-02-13T13:28:21;98136.34;;;12.13;60.27
11621;BME280;5866;49.094;11.900;2023-02-13T13:30:51;98145.59;;;11.98;60.47
11621;BME280;5866;49.094;11.900;2023-02-13T13:33:20;98140.59;;;12.05;60.41
11621;BME280;5866;49.094;11.900;2023-02-13T13:35:54;98138.84;;;11.39;63.36